Home   Weather   Germany   Berlin   Past weeks
Flag for Germany

Past Weather in Berlin, Germany — March 2017

Currently: 36 °F. Passing clouds. (Weather station: Berlin-Schoenefeld, Germany). See more current weather

March 2017 Weather in Berlin — Graph

°F

High & Low Weather Summary for March 2017

 TemperatureHumidityPressure
High72 °F (Mar 31, 2:50 pm)100% (Mar 1, 7:50 pm)30.48 "Hg (Mar 1, 7:50 pm)
Low28 °F (Mar 12, 4:50 am)21% (Mar 28, 3:20 pm)29.33 "Hg (Mar 1, 12:20 am)
Average45 °F73%29.99 "Hg
* Reported Mar 1 12:20 am — Mar 31 11:50 pm, Berlin. Weather by CustomWeather, © 2021

Note: Actual official high and low records may vary slightly from our data, if they occured in-between our weather recording intervals... More about our weather records

Berlin Weather History for March 1, 2017

Scroll right to see more
 ConditionsComfort  
Time TempWeatherWind HumidityBarometerVisibility
12:20 am
Wed, Mar 1
39 °FPassing clouds.2 mph87%29.33 "HgN/A
12:50 am39 °FPassing clouds.9 mph93%29.33 "HgN/A
1:20 am41 °FPartly cloudy.12 mph87%29.33 "HgN/A
1:50 am39 °FPartly cloudy.17 mph87%29.36 "HgN/A
2:20 am39 °FPassing clouds.16 mph87%29.39 "HgN/A
2:50 am39 °FPassing clouds.17 mph87%29.39 "HgN/A
3:20 am39 °FPartly cloudy.21 mph81%29.42 "HgN/A
3:50 am39 °FPassing clouds.16 mph81%29.42 "HgN/A
4:20 am39 °FPassing clouds.14 mph75%29.42 "HgN/A
4:50 am37 °FPassing clouds.10 mph75%29.45 "HgN/A
5:20 am36 °FPassing clouds.9 mph81%29.45 "HgN/A
5:50 am36 °FPassing clouds.6 mph81%29.45 "HgN/A
6:20 am36 °FPassing clouds.8 mph81%29.45 "HgN/A
6:50 am36 °FPassing clouds.6 mph81%29.45 "HgN/A
7:20 am37 °FScattered clouds.9 mph81%29.47 "HgN/A
7:50 am37 °FBroken clouds.14 mph81%29.47 "HgN/A
8:20 am37 °FScattered clouds.13 mph87%29.47 "HgN/A
8:50 am39 °FScattered clouds.14 mph81%29.47 "HgN/A
9:20 am39 °FScattered clouds.13 mph81%29.50 "HgN/A
9:50 am39 °FPartly sunny.15 mph81%29.50 "HgN/A
10:20 am41 °FScattered clouds.10 mph76%29.50 "HgN/A
10:50 am41 °FScattered clouds.13 mph76%29.50 "HgN/A
11:20 am43 °FScattered clouds.12 mph71%29.50 "HgN/A
11:50 am45 °FPartly sunny.10 mph66%29.50 "HgN/A
12:20 pm45 °FPartly sunny.13 mph66%29.50 "HgN/A
12:50 pm43 °FLight rain. Partly sunny.13 mph81%29.50 "HgN/A
1:20 pm41 °FLight rain. Partly sunny.13 mph93%29.50 "HgN/A
1:50 pm43 °FLight rain. Partly sunny.13 mph87%29.50 "HgN/A
2:20 pm43 °FPartly sunny.8 mph87%29.50 "HgN/A
2:50 pm43 °FLight rain. Partly sunny.8 mph93%29.50 "HgN/A
3:20 pm43 °FSprinkles. Partly sunny.6 mph93%29.50 "HgN/A
3:50 pm43 °FSprinkles. Scattered clouds.17 mph93%29.53 "HgN/A
4:20 pm43 °FSprinkles. Partly sunny.14 mph87%29.53 "HgN/A
4:50 pm43 °FPartly sunny.10 mph87%29.53 "HgN/A
5:50 pm41 °FPassing clouds.13 mph87%29.56 "HgN/A
6:20 pm41 °FPassing clouds.15 mph87%29.56 "HgN/A
6:50 pm39 °FClear.13 mph93%29.59 "Hg10 mi
7:20 pm39 °FClear.12 mph93%29.59 "Hg10 mi
7:50 pm36 °FPassing clouds.8 mph100%29.59 "HgN/A
8:20 pm37 °FClear.7 mph93%29.62 "Hg10 mi
8:50 pm36 °FClear.6 mph93%29.62 "Hg10 mi
9:20 pm36 °FClear.6 mph100%29.62 "Hg10 mi
9:50 pm37 °FClear.6 mph93%29.62 "Hg10 mi
10:20 pm36 °FClear.7 mph93%29.62 "Hg10 mi
10:50 pm36 °FPassing clouds.7 mph93%29.62 "HgN/A
11:20 pm34 °FPassing clouds.5 mph100%29.59 "HgN/A
11:50 pm34 °FPassing clouds.5 mph93%29.59 "HgN/A
Weather by CustomWeather, © 2021

See weather overview